Погода Кашаевкана 2 недели

Пензенская область, Россия

25 мая-06 июня
  • 25мая
    Сегодня
    +8°
    +20°
    Ясно и безоблачно
    ВремяПогодаТемператураВлажностьДавлениеВетер, м/сВероятность осадков
    00:00Практически безоблачно+11°C45 %758 мм1.1 м/с2 %
    03:00Ясно и безоблачно+9°C48 %758 мм1.0 м/с2 %
    06:00Ясно и безоблачно+10°C59 %758 мм2.2 м/с2 %
    09:00Ясно и безоблачно+17°C35 %758 мм2.5 м/с2 %
    12:00Ясно и безоблачно+19°C33 %757 мм2.5 м/с2 %
    15:00Ясно и безоблачно+21°C32 %756 мм3.4 м/с2 %
    18:00Ясно и безоблачно+21°C38 %754 мм3.0 м/с2 %
    21:00Ясно и безоблачно+13°C63 %753 мм2.8 м/с2 %
  • 26мая
    Воскресенье
    +8°
    +24°
    Ясно и безоблачно
    ВремяПогодаТемператураВлажностьДавлениеВетер, м/сВероятность осадков
    00:00Ясно и безоблачно+10°C75 %753 мм2.6 м/с2 %
    03:00Ясно и безоблачно+8°C75 %753 мм2.3 м/с2 %
    06:00Ясно и безоблачно+12°C65 %752 мм3.0 м/с2 %
    09:00Ясно и безоблачно+19°C48 %752 мм3.2 м/с2 %
    12:00Ясно и безоблачно+22°C34 %751 мм4.0 м/с2 %
    15:00Ясно и безоблачно+24°C33 %750 мм3.6 м/с5 %
    18:00Облачно с прояснениями+21°C47 %750 мм4.3 м/с8 %
    21:00Практически безоблачно+16°C80 %751 мм2.9 м/с13 %
  • 27мая
    Понедельник
    +8°
    +20°
    Ясно и безоблачно
    ВремяПогодаТемператураВлажностьДавлениеВетер, м/сВероятность осадков
    00:00Ясно и безоблачно+12°C92 %751 мм2.9 м/с2 %
    03:00Ясно и безоблачно+11°C94 %752 мм3.3 м/с2 %
    06:00Ясно и безоблачно+12°C77 %754 мм3.5 м/с2 %
    09:00Ясно и безоблачно+17°C62 %754 мм3.6 м/с2 %
    12:00Ясно и безоблачно+19°C42 %755 мм3.6 м/с2 %
    15:00Ясно и безоблачно+20°C36 %754 мм3.2 м/с2 %
    18:00Ясно и безоблачно+19°C35 %754 мм2.9 м/с2 %
    21:00Ясно и безоблачно+14°C55 %754 мм2.2 м/с2 %
  • 28мая
    Вторник
    +11°
    +22°
    Ясно и безоблачно
    ВремяПогодаТемператураВлажностьДавлениеВетер, м/сВероятность осадков
    00:00Ясно и безоблачно+11°C55 %754 мм2.6 м/с2 %
    03:00Ясно и безоблачно+9°C65 %754 мм2.3 м/с2 %
    06:00Ясно и безоблачно+12°C67 %754 мм2.7 м/с2 %
    09:00Ясно и безоблачно+18°C44 %754 мм1.4 м/с2 %
    12:00Ясно и безоблачно+21°C35 %754 мм1.4 м/с2 %
    15:00Ясно и безоблачно+22°C31 %753 мм1.7 м/с4 %
    18:00Ясно и безоблачно+22°C36 %751 мм1.5 м/с2 %
    21:00Ясно и безоблачно+16°C59 %751 мм2.1 м/с2 %
Мы используем cookies
Соглашаюсь